Time;durP1;ratioP1;P1;durP2;ratioP2;P2;SDS_P1;SDS_P2;PMS_P1;PMS_P2;Temp;Humidity;BMP_temperature;BMP_pressure;BME280_temperature;BME280_humidity;BME280_pressure;Samples;Min_cycle;Max_cycle;Signal;HPM_P1;HPM_P2
2023/09/04 00:01:24;;;;;;;;;;;;;;;21.46;58.39;99590.94;3166527;28;19947;-68
2023/09/04 00:02:55;;;;;;;;;;;;;;;21.46;58.30;99585.63;3169892;28;19928;-67
2023/09/04 00:04:26;;;;;;;;;;;;;;;21.46;58.46;99594.41;3165574;28;20400;-67
2023/09/04 00:05:57;;;;;;;;;;;;;;;21.47;58.10;99592.59;3167713;28;19934;-67
2023/09/04 00:07:29;;;;;;;;;;;;;;;21.47;58.24;99587.28;3170150;28;19931;-67
2023/09/04 00:08:59;;;;;;;;;;;;;;;21.48;58.02;99587.16;3170117;28;19939;-67
2023/09/04 00:10:32;;;;;;;;;;;;;;;21.51;58.05;99589.53;3162854;28;19924;-67
2023/09/04 00:12:03;;;;;;;;;;;;;;;21.53;57.74;99590.22;3170263;28;19923;-67
2023/09/04 00:13:36;;;;;;;;;;;;;;;21.55;57.82;99588.25;3162921;28;20403;-66
2023/09/04 00:15:06;;;;;;;;;;;;;;;21.55;57.53;99588.25;3170380;28;19928;-67
2023/09/04 00:16:39;;;;;;;;;;;;;;;21.52;57.86;99579.75;3170423;28;19927;-67
2023/09/04 00:18:09;;;;;;;;;;;;;;;21.46;58.23;99575.03;3159271;28;20005;-67
2023/09/04 00:19:41;;;;;;;;;;;;;;;21.38;58.73;99577.56;3168599;28;20018;-68
2023/09/04 00:21:11;;;;;;;;;;;;;;;21.30;59.03;99568.50;3161736;28;19993;-68
2023/09/04 00:22:43;;;;;;;;;;;;;;;21.24;59.38;99569.09;3157883;28;20068;-67
2023/09/04 00:24:14;;;;;;;;;;;;;;;21.19;59.65;99567.84;3165859;28;20356;-68
2023/09/04 00:25:47;;;;;;;;;;;;;;;21.14;59.61;99566.44;3170070;28;19928;-67
2023/09/04 00:27:19;;;;;;;;;;;;;;;21.11;59.84;99572.00;3169713;28;19955;-67
2023/09/04 00:28:51;;;;;;;;;;;;;;;21.10;59.70;99578.28;3169529;28;19924;-68
2023/09/04 00:30:22;;;;;;;;;;;;;;;21.14;59.52;99587.63;3170202;28;19924;-67
2023/09/04 00:31:53;;;;;;;;;;;;;;;21.20;59.27;99580.09;3170210;28;19923;-67
2023/09/04 00:33:24;;;;;;;;;;;;;;;21.22;59.05;99572.84;3164897;27;19976;-67
2023/09/04 00:34:55;;;;;;;;;;;;;;;21.22;59.32;99575.50;3170304;28;19980;-67
2023/09/04 00:36:27;;;;;;;;;;;;;;;21.26;59.13;99584.81;3163000;28;19939;-67
2023/09/04 00:37:59;;;;;;;;;;;;;;;21.28;58.80;99581.03;3169258;28;21214;-67
2023/09/04 00:39:29;;;;;;;;;;;;;;;21.32;58.74;99578.94;3157550;28;19928;-67
2023/09/04 00:41:02;;;;;;;;;;;;;;;21.34;58.42;99577.81;3145063;28;19940;-67
2023/09/04 00:42:33;;;;;;;;;;;;;;;21.39;58.40;99580.09;3169660;28;19987;-67
2023/09/04 00:44:05;;;;;;;;;;;;;;;21.42;58.22;99579.78;3161713;28;20080;-68
2023/09/04 00:45:36;;;;;;;;;;;;;;;21.44;58.07;99583.13;3167760;28;19924;-68
2023/09/04 00:47:09;;;;;;;;;;;;;;;21.46;58.06;99586.47;3169750;28;19928;-66
2023/09/04 00:48:40;;;;;;;;;;;;;;;21.49;58.07;99583.53;3166340;28;19992;-67
2023/09/04 00:50:15;;;;;;;;;;;;;;;21.51;57.99;99583.41;3169693;28;20018;-67
2023/09/04 00:51:46;;;;;;;;;;;;;;;21.53;57.66;99576.97;3167310;28;20246;-67
2023/09/04 00:53:17;;;;;;;;;;;;;;;21.51;57.87;99573.63;3169709;28;19924;-66
2023/09/04 00:54:48;;;;;;;;;;;;;;;21.52;57.86;99567.34;3170300;28;19935;-66
2023/09/04 00:56:21;;;;;;;;;;;;;;;21.50;57.98;99571.09;3170227;28;19946;-67
2023/09/04 00:57:52;;;;;;;;;;;;;;;21.50;57.90;99568.47;3169923;28;19923;-66
2023/09/04 00:59:24;;;;;;;;;;;;;;;21.50;57.79;99566.66;3169646;28;19931;-66
2023/09/04 01:00:55;;;;;;;;;;;;;;;21.47;58.05;99566.09;3164702;28;19940;-66
2023/09/04 01:02:26;;;;;;;;;;;;;;;21.44;58.04;99555.78;3165219;28;20317;-67
2023/09/04 01:03:57;;;;;;;;;;;;;;;21.40;58.39;99560.56;3169574;28;20321;-67
2023/09/04 01:05:31;;;;;;;;;;;;;;;21.38;58.43;99554.56;3170471;28;19927;-67
2023/09/04 01:07:02;;;;;;;;;;;;;;;21.37;58.43;99557.38;3154986;28;19928;-66
2023/09/04 01:08:33;;;;;;;;;;;;;;;21.37;58.44;99554.72;3169882;28;20022;-66
2023/09/04 01:10:05;;;;;;;;;;;;;;;21.39;58.27;99553.59;3158266;28;20035;-66
2023/09/04 01:11:41;;;;;;;;;;;;;;;21.42;58.28;99553.31;3168518;28;20018;-66
2023/09/04 01:13:15;;;;;;;;;;;;;;;21.41;58.33;99559.56;3165223;28;19928;-66
2023/09/04 01:14:48;;;;;;;;;;;;;;;21.38;58.47;99567.81;3168191;28;20006;-66
2023/09/04 01:16:19;;;;;;;;;;;;;;;21.39;58.36;99563.38;3171887;28;20412;-67
2023/09/04 01:17:52;;;;;;;;;;;;;;;21.39;58.49;99564.19;3160101;28;20016;-67
2023/09/04 01:19:23;;;;;;;;;;;;;;;21.41;58.33;99562.22;3167292;28;19931;-67
2023/09/04 01:21:02;;;;;;;;;;;;;;;21.43;58.09;99573.50;3172328;28;19934;-67
2023/09/04 01:22:32;;;;;;;;;;;;;;;21.47;58.11;99571.41;3161917;28;20411;-67
2023/09/04 01:24:04;;;;;;;;;;;;;;;21.49;57.93;99577.41;3172359;28;19930;-67
2023/09/04 01:25:38;;;;;;;;;;;;;;;21.49;57.93;99583.53;3171895;28;20324;-65
2023/09/04 01:27:15;;;;;;;;;;;;;;;21.44;58.27;99575.16;3171819;28;19943;-65
2023/09/04 01:28:54;;;;;;;;;;;;;;;21.38;58.50;99567.81;3172223;28;19924;-65
2023/09/04 01:30:29;;;;;;;;;;;;;;;21.33;58.62;99567.38;3172242;28;19928;-65
2023/09/04 01:32:03;;;;;;;;;;;;;;;21.31;58.73;99569.34;3167765;28;20392;-66
2023/09/04 01:33:39;;;;;;;;;;;;;;;21.31;59.07;99566.69;3172200;28;20036;-65
2023/09/04 01:35:11;;;;;;;;;;;;;;;21.27;59.18;99568.78;3171529;28;19928;-66
2023/09/04 01:36:44;;;;;;;;;;;;;;;21.23;59.42;99567.41;3171390;28;20010;-65
2023/09/04 01:38:14;;;;;;;;;;;;;;;21.21;59.78;99565.84;3171841;28;19927;-65
2023/09/04 01:39:47;;;;;;;;;;;;;;;21.20;59.88;99561.56;3170728;28;19924;-66
2023/09/04 01:41:18;;;;;;;;;;;;;;;21.19;59.84;99558.06;3172229;28;20344;-66
2023/09/04 01:42:49;;;;;;;;;;;;;;;21.17;59.92;99557.38;3171979;28;19931;-66
2023/09/04 01:44:20;;;;;;;;;;;;;;;21.19;59.88;99557.25;3171794;28;20430;-66
2023/09/04 01:45:51;;;;;;;;;;;;;;;21.20;59.68;99565.03;3168495;28;19993;-65
2023/09/04 01:47:22;;;;;;;;;;;;;;;21.20;60.16;99558.91;3171140;28;19993;-66
2023/09/04 01:48:53;;;;;;;;;;;;;;;21.17;60.39;99559.19;3172039;28;19950;-66
2023/09/04 01:50:25;;;;;;;;;;;;;;;21.16;60.44;99568.13;3172183;28;20464;-66
2023/09/04 01:52:00;;;;;;;;;;;;;;;21.16;60.31;99553.06;3165566;28;19924;-66
2023/09/04 01:53:31;;;;;;;;;;;;;;;21.18;60.05;99553.78;3168562;28;19928;-65
2023/09/04 01:55:02;;;;;;;;;;;;;;;21.27;59.93;99554.72;3171912;28;19931;-66
2023/09/04 01:56:33;;;;;;;;;;;;;;;21.32;59.53;99555.09;3171547;28;19961;-66
2023/09/04 01:58:04;;;;;;;;;;;;;;;21.37;59.43;99550.25;3171580;28;20559;-66
2023/09/04 01:59:35;;;;;;;;;;;;;;;21.37;59.75;99549.41;3171963;28;20076;-65
2023/09/04 02:01:06;;;;;;;;;;;;;;;21.33;59.83;99544.38;3165157;28;20277;-66
2023/09/04 02:02:38;;;;;;;;;;;;;;;21.31;59.88;99543.69;3171957;28;19928;-65
2023/09/04 02:04:08;;;;;;;;;;;;;;;21.27;60.28;99549.44;3171849;28;20347;-66
2023/09/04 02:05:40;;;;;;;;;;;;;;;21.23;60.60;99540.06;3171690;28;19938;-65
2023/09/04 02:07:12;;;;;;;;;;;;;;;21.21;60.58;99544.69;3166836;28;19928;-65
2023/09/04 02:08:45;;;;;;;;;;;;;;;21.20;60.72;99541.19;3170902;28;19935;-66
2023/09/04 02:10:16;;;;;;;;;;;;;;;21.21;60.51;99539.38;3159209;28;19928;-66
2023/09/04 02:11:47;;;;;;;;;;;;;;;21.21;60.68;99539.38;3172069;28;19924;-66
2023/09/04 02:13:18;;;;;;;;;;;;;;;21.21;60.70;99534.09;3165763;28;19985;-66
2023/09/04 02:14:50;;;;;;;;;;;;;;;21.20;60.43;99535.91;3168542;28;19932;-66
2023/09/04 02:16:22;;;;;;;;;;;;;;;21.21;60.41;99528.78;3170020;28;19923;-66
2023/09/04 02:17:53;;;;;;;;;;;;;;;21.20;60.41;99532.41;3171300;28;19975;-66
2023/09/04 02:19:24;;;;;;;;;;;;;;;21.17;60.53;99527.41;3171720;28;20341;-66
2023/09/04 02:20:55;;;;;;;;;;;;;;;21.15;60.71;99522.28;3171586;28;19928;-66
2023/09/04 02:22:28;;;;;;;;;;;;;;;21.16;60.70;99526.59;3164565;28;19989;-66
2023/09/04 02:23:59;;;;;;;;;;;;;;;21.16;60.56;99518.66;3165106;28;19927;-66
2023/09/04 02:25:30;;;;;;;;;;;;;;;21.13;60.88;99522.41;3170979;28;19931;-68
2023/09/04 02:27:02;;;;;;;;;;;;;;;21.12;60.80;99526.03;3170525;28;20331;-68
2023/09/04 02:28:32;;;;;;;;;;;;;;;21.09;60.82;99518.38;3171869;28;19924;-68
2023/09/04 02:30:07;;;;;;;;;;;;;;;21.09;60.74;99523.69;3165803;28;20000;-68
2023/09/04 02:31:39;;;;;;;;;;;;;;;21.07;60.88;99512.41;3171332;28;19928;-67
2023/09/04 02:33:09;;;;;;;;;;;;;;;21.04;60.89;99507.38;3170842;28;20366;-67
2023/09/04 02:34:41;;;;;;;;;;;;;;;21.02;61.08;99506.69;3171466;28;19934;-67
2023/09/04 02:36:11;;;;;;;;;;;;;;;20.99;61.13;99506.97;3166224;28;20014;-67
2023/09/04 02:37:44;;;;;;;;;;;;;;;20.99;61.05;99498.19;3162932;28;19924;-67
2023/09/04 02:39:15;;;;;;;;;;;;;;;20.98;61.17;99497.38;3170663;28;20031;-66
2023/09/04 02:40:47;;;;;;;;;;;;;;;20.99;61.11;99496.38;3171102;28;19931;-66
2023/09/04 02:42:17;;;;;;;;;;;;;;;21.01;60.95;99491.78;3171248;28;19930;-66
2023/09/04 02:43:49;;;;;;;;;;;;;;;21.00;60.74;99494.56;3171174;28;19935;-66
2023/09/04 02:45:20;;;;;;;;;;;;;;;20.99;60.84;99499.03;3162134;28;19932;-65
2023/09/04 02:46:51;;;;;;;;;;;;;;;20.98;60.69;99502.66;3171118;28;19951;-67
2023/09/04 02:48:22;;;;;;;;;;;;;;;20.99;60.39;99493.75;3171165;28;20018;-66
2023/09/04 02:49:54;;;;;;;;;;;;;;;20.99;60.42;99498.19;3166681;28;19934;-66
2023/09/04 02:51:24;;;;;;;;;;;;;;;20.99;60.12;99491.09;3165969;28;19998;-66
2023/09/04 02:52:57;;;;;;;;;;;;;;;21.00;59.99;99490.13;3160552;28;19927;-66
2023/09/04 02:54:28;;;;;;;;;;;;;;;21.05;59.70;99493.16;3165944;28;19985;-65
2023/09/04 02:56:00;;;;;;;;;;;;;;;21.07;59.76;99493.84;3165913;28;19978;-66
2023/09/04 02:57:31;;;;;;;;;;;;;;;21.06;59.45;99492.19;3165728;28;20377;-66
2023/09/04 02:59:03;;;;;;;;;;;;;;;21.08;59.47;99492.03;3161879;28;19928;-67
2023/09/04 03:00:33;;;;;;;;;;;;;;;21.05;59.29;99490.50;3161715;28;20152;-66
2023/09/04 03:02:05;;;;;;;;;;;;;;;21.06;59.32;99488.69;3165874;28;20389;-66
2023/09/04 03:03:36;;;;;;;;;;;;;;;21.06;59.33;99489.56;3165597;28;19931;-66
2023/09/04 03:05:08;;;;;;;;;;;;;;;21.08;59.29;99494.69;3165323;28;19947;-66
2023/09/04 03:06:39;;;;;;;;;;;;;;;21.07;59.15;99493.84;3156943;28;19928;-66
2023/09/04 03:08:12;;;;;;;;;;;;;;;21.06;58.87;99486.91;3153447;28;19928;-66
2023/09/04 03:09:43;;;;;;;;;;;;;;;21.06;58.80;99488.69;3158811;28;19985;-67
2023/09/04 03:11:15;;;;;;;;;;;;;;;21.06;58.73;99489.56;3153044;28;20428;-67
2023/09/04 03:12:45;;;;;;;;;;;;;;;21.07;58.95;99482.44;3159410;28;20298;-67
2023/09/04 03:14:17;;;;;;;;;;;;;;;21.03;58.59;99484.56;3159126;28;19935;-67
2023/09/04 03:15:47;;;;;;;;;;;;;;;21.03;58.80;99484.56;3165486;28;19932;-67
2023/09/04 03:17:19;;;;;;;;;;;;;;;21.05;58.70;99482.56;3165468;28;20048;-67
2023/09/04 03:18:50;;;;;;;;;;;;;;;21.07;58.47;99485.91;3165282;28;19958;-67
2023/09/04 03:20:22;;;;;;;;;;;;;;;21.08;58.31;99487.56;3165567;28;19936;-67
2023/09/04 03:21:52;;;;;;;;;;;;;;;21.08;58.36;99476.16;3165346;28;19934;-67
2023/09/04 03:23:25;;;;;;;;;;;;;;;21.09;58.14;99483.13;3156932;28;19928;-66
2023/09/04 03:24:56;;;;;;;;;;;;;;;21.11;57.93;99470.56;3165345;28;19954;-66
2023/09/04 03:26:27;;;;;;;;;;;;;;;21.14;57.78;99480.88;3165887;28;20416;-66
2023/09/04 03:27:58;;;;;;;;;;;;;;;21.14;57.81;99475.56;3161765;28;19928;-66
2023/09/04 03:29:30;;;;;;;;;;;;;;;21.15;57.66;99477.25;3164301;28;20320;-67
2023/09/04 03:31:00;;;;;;;;;;;;;;;21.16;57.72;99478.09;3164994;28;19932;-64
2023/09/04 03:32:32;;;;;;;;;;;;;;;21.16;57.63;99486.03;3158934;28;20400;-65
2023/09/04 03:34:05;;;;;;;;;;;;;;;21.13;57.59;99480.03;3161401;28;20169;-64
2023/09/04 03:35:36;;;;;;;;;;;;;;;21.12;57.72;99478.38;3165256;28;19935;-64
2023/09/04 03:37:07;;;;;;;;;;;;;;;21.12;57.75;99478.38;3165333;28;19935;-64
2023/09/04 03:38:40;;;;;;;;;;;;;;;21.12;57.83;99477.56;3161064;28;19928;-64
2023/09/04 03:40:17;;;;;;;;;;;;;;;21.12;57.90;99474.91;3165213;28;19938;-65
2023/09/04 03:41:49;;;;;;;;;;;;;;;21.11;57.88;99476.69;3165315;28;19999;-64
2023/09/04 03:43:19;;;;;;;;;;;;;;;21.11;57.95;99475.88;3160958;28;19977;-65
2023/09/04 03:44:51;;;;;;;;;;;;;;;21.11;58.06;99476.69;3164972;28;20023;-64
2023/09/04 03:46:21;;;;;;;;;;;;;;;21.11;58.04;99474.06;3165044;28;19992;-64
2023/09/04 03:47:53;;;;;;;;;;;;;;;21.14;58.19;99478.22;3165131;28;20420;-64
2023/09/04 03:49:25;;;;;;;;;;;;;;;21.13;58.32;99482.69;3165030;28;19932;-64
2023/09/04 03:50:58;;;;;;;;;;;;;;;21.11;58.25;99478.50;3165307;28;19928;-64
2023/09/04 03:52:29;;;;;;;;;;;;;;;21.10;58.20;99485.63;3165039;28;19934;-63
2023/09/04 03:54:02;;;;;;;;;;;;;;;21.10;58.49;99485.63;3153206;28;19932;-64
2023/09/04 03:55:34;;;;;;;;;;;;;;;21.09;58.18;99485.78;3164640;28;19928;-64
2023/09/04 03:57:05;;;;;;;;;;;;;;;21.09;58.31;99483.97;3162252;28;19928;-64
2023/09/04 03:58:36;;;;;;;;;;;;;;;21.06;58.37;99480.75;3163231;28;20056;-65
2023/09/04 04:00:14;;;;;;;;;;;;;;;21.04;58.18;99486.22;3164592;28;20465;-66
2023/09/04 04:01:46;;;;;;;;;;;;;;;21.02;58.12;99490.81;3150677;28;19927;-66
2023/09/04 04:03:16;;;;;;;;;;;;;;;21.02;58.02;99487.31;3152130;28;19981;-65
2023/09/04 04:04:52;;;;;;;;;;;;;;;21.01;58.05;99494.44;3162722;28;19931;-66
2023/09/04 04:06:22;;;;;;;;;;;;;;;21.01;58.01;99497.09;3156704;28;19928;-66
2023/09/04 04:07:54;;;;;;;;;;;;;;;21.03;57.89;99492.50;3157619;28;20396;-66
2023/09/04 04:09:27;;;;;;;;;;;;;;;21.02;57.90;99495.28;3159224;28;20086;-65
2023/09/04 04:10:58;;;;;;;;;;;;;;;21.02;57.95;99495.28;3162758;28;19934;-64
2023/09/04 04:12:31;;;;;;;;;;;;;;;21.02;57.83;99497.91;3160234;28;19927;-66
2023/09/04 04:14:02;;;;;;;;;;;;;;;21.01;58.04;99497.09;3157216;28;19927;-65
2023/09/04 04:15:33;;;;;;;;;;;;;;;21.00;58.03;99498.06;3160484;28;20294;-69
2023/09/04 04:17:04;;;;;;;;;;;;;;;20.96;58.38;99493.19;3153335;28;20050;-68
2023/09/04 04:18:36;;;;;;;;;;;;;;;20.98;58.26;99505.31;3153602;28;19927;-72
2023/09/04 04:20:10;;;;;;;;;;;;;;;20.95;58.70;99505.59;3153418;28;20420;-75
2023/09/04 04:21:42;;;;;;;;;;;;;;;20.92;58.81;99508.53;3153500;28;20097;-71
2023/09/04 04:23:12;;;;;;;;;;;;;;;20.88;58.86;99515.06;3163359;28;19927;-67
2023/09/04 04:24:45;;;;;;;;;;;;;;;20.80;59.77;99514.97;3164944;28;19927;-70
2023/09/04 04:26:16;;;;;;;;;;;;;;;20.76;59.68;99514.41;3162430;28;19928;-72
2023/09/04 04:27:47;;;;;;;;;;;;;;;20.71;59.85;99513.19;3164012;28;19984;-75
2023/09/04 04:29:18;;;;;;;;;;;;;;;20.66;60.16;99527.63;3164394;28;19928;-70
2023/09/04 04:30:50;;;;;;;;;;;;;;;20.62;60.78;99533.38;3164739;28;19928;-69
2023/09/04 04:32:20;;;;;;;;;;;;;;;20.57;61.30;99539.06;3164812;28;20531;-71
2023/09/04 04:33:52;;;;;;;;;;;;;;;20.51;62.15;99539.59;3164357;28;19927;-73
2023/09/04 04:35:23;;;;;;;;;;;;;;;20.43;62.48;99542.91;3164663;28;20001;-72
2023/09/04 04:36:56;;;;;;;;;;;;;;;20.38;63.20;99544.31;3164912;28;19935;-73
2023/09/04 04:38:27;;;;;;;;;;;;;;;20.34;63.37;99562.28;3158992;28;21263;-66
2023/09/04 04:40:00;;;;;;;;;;;;;;;20.30;63.87;99566.16;3152287;28;19928;-69
2023/09/04 04:41:32;;;;;;;;;;;;;;;20.25;64.32;99568.38;3153628;28;19990;-70
2023/09/04 04:43:03;;;;;;;;;;;;;;;20.23;64.86;99580.91;3159921;28;19978;-75
2023/09/04 04:44:35;;;;;;;;;;;;;;;20.13;65.49;99578.25;3161851;28;20645;-72
2023/09/04 04:46:09;;;;;;;;;;;;;;;19.93;67.12;99580.00;3161389;28;19927;-68
2023/09/04 04:47:39;;;;;;;;;;;;;;;19.74;68.32;99580.78;3164780;28;19975;-68
2023/09/04 04:49:11;;;;;;;;;;;;;;;19.60;69.13;99577.63;3164434;28;19928;-70
2023/09/04 04:50:42;;;;;;;;;;;;;;;19.50;69.58;99582.88;3167070;28;19938;-69
2023/09/04 04:52:13;;;;;;;;;;;;;;;19.48;69.41;99584.78;3167743;28;19934;-72
2023/09/04 04:53:44;;;;;;;;;;;;;;;19.37;70.21;99576.94;3162452;28;19928;-69
2023/09/04 04:55:17;;;;;;;;;;;;;;;19.29;70.64;99589.00;3156954;28;20646;-71
2023/09/04 04:56:48;;;;;;;;;;;;;;;19.22;71.11;99585.19;3157850;28;19928;-70
2023/09/04 04:58:20;;;;;;;;;;;;;;;19.19;71.28;99580.16;3163716;28;19932;-69
2023/09/04 04:59:50;;;;;;;;;;;;;;;19.15;71.34;99586.69;3157929;28;19939;-74
2023/09/04 05:01:22;;;;;;;;;;;;;;;19.14;71.33;99585.03;3154546;28;19938;-68
2023/09/04 05:02:53;;;;;;;;;;;;;;;19.13;71.50;99588.59;3160812;28;19989;-68
2023/09/04 05:04:25;;;;;;;;;;;;;;;19.11;71.64;99590.56;3165310;28;20370;-68
2023/09/04 05:05:55;;;;;;;;;;;;;;;19.07;71.39;99595.25;3157494;28;19984;-70
2023/09/04 05:07:28;;;;;;;;;;;;;;;19.09;71.26;99590.69;3166534;28;20377;-66
2023/09/04 05:08:59;;;;;;;;;;;;;;;19.07;71.47;99595.25;3163766;28;20043;-70
2023/09/04 05:10:32;;;;;;;;;;;;;;;19.03;71.79;99595.63;3166891;28;20436;-68
2023/09/04 05:12:03;;;;;;;;;;;;;;;19.00;71.71;99596.72;3167025;28;19927;-69
2023/09/04 05:13:35;;;;;;;;;;;;;;;18.99;71.77;99595.06;3159568;28;19928;-70
2023/09/04 05:15:06;;;;;;;;;;;;;;;19.00;71.71;99595.91;3165937;28;19927;-70
2023/09/04 05:16:38;;;;;;;;;;;;;;;19.00;71.75;99590.63;3166968;28;20454;-72
2023/09/04 05:18:09;;;;;;;;;;;;;;;19.01;71.66;99595.75;3156731;28;19954;-69
2023/09/04 05:19:40;;;;;;;;;;;;;;;19.03;71.47;99593.00;3163649;28;19970;-74
2023/09/04 05:21:12;;;;;;;;;;;;;;;19.02;71.48;99591.34;3166804;28;19936;-72
2023/09/04 05:22:44;;;;;;;;;;;;;;;19.02;71.40;99586.06;3166692;28;20348;-68
2023/09/04 05:24:14;;;;;;;;;;;;;;;19.00;71.42;99583.53;3161417;28;19981;-68
2023/09/04 05:25:50;;;;;;;;;;;;;;;19.02;71.17;99578.97;3157424;28;19932;-74
2023/09/04 05:27:21;;;;;;;;;;;;;;;19.04;71.11;99576.19;3166292;28;20018;-70
2023/09/04 05:28:53;;;;;;;;;;;;;;;19.02;71.22;99592.16;3166491;28;19927;-70
2023/09/04 05:30:23;;;;;;;;;;;;;;;19.03;71.23;99585.09;3166541;28;19927;-72
2023/09/04 05:31:56;;;;;;;;;;;;;;;19.02;71.20;99589.53;3166513;28;19990;-74
2023/09/04 05:33:26;;;;;;;;;;;;;;;18.99;71.49;99579.22;3166273;28;20038;-72
2023/09/04 05:34:58;;;;;;;;;;;;;;;18.98;71.53;99588.09;3166431;28;20312;-72
2023/09/04 05:36:28;;;;;;;;;;;;;;;18.95;71.56;99585.72;3164716;28;20012;-69
2023/09/04 05:38:00;;;;;;;;;;;;;;;18.97;71.47;99585.59;3161301;28;20361;-73
2023/09/04 05:39:31;;;;;;;;;;;;;;;19.00;71.08;99594.09;3153625;28;19947;-70
2023/09/04 05:41:04;;;;;;;;;;;;;;;19.05;70.80;99583.16;3159287;28;19932;-69
2023/09/04 05:42:34;;;;;;;;;;;;;;;19.10;70.64;99588.88;3166530;28;19934;-75
2023/09/04 05:44:06;;;;;;;;;;;;;;;19.15;70.19;99586.69;3166429;28;20442;-73
2023/09/04 05:45:39;;;;;;;;;;;;;;;19.18;70.25;99586.44;3166525;28;19931;-70
2023/09/04 05:47:10;;;;;;;;;;;;;;;19.19;70.12;99584.63;3166626;28;19938;-74
2023/09/04 05:48:41;;;;;;;;;;;;;;;19.22;69.96;99594.91;3166599;28;19932;-69
2023/09/04 05:50:12;;;;;;;;;;;;;;;19.25;69.83;99600.78;3165368;28;20424;-73
2023/09/04 05:51:43;;;;;;;;;;;;;;;19.29;69.64;99601.38;3154160;28;19927;-73
2023/09/04 05:53:15;;;;;;;;;;;;;;;19.31;69.69;99595.00;3166770;28;19928;-70
2023/09/04 05:54:45;;;;;;;;;;;;;;;19.32;69.44;99594.03;3159185;28;19928;-68
2023/09/04 05:56:18;;;;;;;;;;;;;;;19.33;69.50;99592.22;3165633;28;19968;-68
2023/09/04 05:57:50;;;;;;;;;;;;;;;19.39;69.31;99598.78;3166101;28;19935;-67
2023/09/04 05:59:21;;;;;;;;;;;;;;;19.40;69.20;99598.63;3166363;28;20464;-69
2023/09/04 06:00:52;;;;;;;;;;;;;;;19.41;69.26;99602.97;3156587;28;19932;-71
2023/09/04 06:02:23;;;;;;;;;;;;;;;19.40;69.29;99597.81;3158441;28;19928;-71
2023/09/04 06:03:54;;;;;;;;;;;;;;;19.43;69.24;99603.69;3166189;28;20421;-68
2023/09/04 06:05:25;;;;;;;;;;;;;;;19.47;69.13;99605.09;3165540;28;19988;-66
2023/09/04 06:06:57;;;;;;;;;;;;;;;19.50;68.91;99604.00;3160222;28;20401;-65
2023/09/04 06:08:29;;;;;;;;;;;;;;;19.52;68.98;99599.38;3165696;28;20804;-63
2023/09/04 06:10:00;;;;;;;;;;;;;;;19.55;68.86;99607.06;3156621;28;19928;-67
2023/09/04 06:11:32;;;;;;;;;;;;;;;19.59;68.89;99599.72;3163996;28;20014;-66
2023/09/04 06:13:04;;;;;;;;;;;;;;;19.61;68.88;99603.06;3162775;28;19981;-65
2023/09/04 06:14:35;;;;;;;;;;;;;;;19.64;68.69;99602.78;3162488;28;20030;-70
2023/09/04 06:16:06;;;;;;;;;;;;;;;19.68;68.59;99602.44;3166450;28;19935;-67
2023/09/04 06:17:37;;;;;;;;;;;;;;;19.70;68.62;99600.50;3165967;28;19935;-67
2023/09/04 06:19:09;;;;;;;;;;;;;;;19.73;68.37;99605.53;3166522;28;19978;-66
2023/09/04 06:20:41;;;;;;;;;;;;;;;19.76;68.38;99605.25;3165318;28;20023;-71
2023/09/04 06:22:13;;;;;;;;;;;;;;;19.78;68.41;99613.88;3159105;28;19932;-68
2023/09/04 06:23:44;;;;;;;;;;;;;;;19.82;68.32;99616.25;3166099;28;20070;-77
2023/09/04 06:25:17;;;;;;;;;;;;;;;19.83;67.98;99605.56;3161387;28;19939;-74
2023/09/04 06:26:50;;;;;;;;;;;;;;;19.83;68.33;99613.47;3165903;28;19933;-78
2023/09/04 06:28:23;;;;;;;;;;;;;;;19.83;68.49;99605.56;3166536;28;19980;-79
2023/09/04 06:29:54;;;;;;;;;;;;;;;19.83;68.25;99617.94;3164614;28;19928;-77
2023/09/04 06:31:26;;;;;;;;;;;;;;;19.83;68.44;99610.84;3158902;28;19988;-76
2023/09/04 06:32:57;;;;;;;;;;;;;;;19.85;68.56;99610.72;3154167;28;20366;-73
2023/09/04 06:34:29;;;;;;;;;;;;;;;19.86;68.15;99615.84;3166466;28;20354;-75
2023/09/04 06:36:00;;;;;;;;;;;;;;;19.87;68.44;99608.75;3166283;28;19928;-74
2023/09/04 06:37:32;;;;;;;;;;;;;;;19.88;68.18;99613.09;3164285;28;19940;-74
2023/09/04 06:39:04;;;;;;;;;;;;;;;19.89;68.41;99617.41;3164704;28;20027;-72
2023/09/04 06:40:35;;;;;;;;;;;;;;;19.89;68.43;99622.69;3156066;28;20533;-69
2023/09/04 06:42:08;;;;;;;;;;;;;;;19.90;68.33;99619.91;3166450;28;20023;-70
2023/09/04 06:43:39;;;;;;;;;;;;;;;19.94;68.13;99621.31;3165710;28;19928;-66
2023/09/04 06:45:11;;;;;;;;;;;;;;;19.96;68.14;99622.00;3165733;28;20057;-73
2023/09/04 06:46:43;;;;;;;;;;;;;;;19.98;68.00;99627.16;3165968;27;19932;-73
2023/09/04 06:48:14;;;;;;;;;;;;;;;19.99;67.98;99620.91;3157136;28;19928;-71
2023/09/04 06:49:45;;;;;;;;;;;;;;;19.99;68.03;99626.19;3164136;28;20491;-71
2023/09/04 06:51:17;;;;;;;;;;;;;;;20.01;68.11;99624.25;3160265;28;19977;-69
2023/09/04 06:52:48;;;;;;;;;;;;;;;20.02;67.96;99625.91;3153095;28;19932;-69
2023/09/04 06:54:20;;;;;;;;;;;;;;;20.05;67.68;99625.66;3161895;28;19982;-67
2023/09/04 06:55:52;;;;;;;;;;;;;;;20.08;67.80;99625.38;3159878;28;20026;-67
2023/09/04 06:57:24;;;;;;;;;;;;;;;20.09;67.53;99621.78;3165881;28;19931;-68
2023/09/04 06:58:56;;;;;;;;;;;;;;;20.11;67.79;99625.13;3165694;28;19928;-66
2023/09/04 07:00:26;;;;;;;;;;;;;;;20.11;67.90;99625.13;3163210;28;20409;-69
2023/09/04 07:01:58;;;;;;;;;;;;;;;20.13;67.56;99619.72;3149609;28;20008;-67
2023/09/04 07:03:30;;;;;;;;;;;;;;;20.14;67.77;99627.53;3165779;28;19935;-67
2023/09/04 07:05:01;;;;;;;;;;;;;;;20.15;67.52;99623.88;3165306;28;19932;-69
2023/09/04 07:06:32;;;;;;;;;;;;;;;20.16;67.59;99622.09;3165779;28;20300;-68
2023/09/04 07:08:04;;;;;;;;;;;;;;;20.16;67.50;99622.91;3165852;28;19928;-66
2023/09/04 07:09:36;;;;;;;;;;;;;;;20.17;67.47;99624.59;3160990;28;19928;-69
2023/09/04 07:11:08;;;;;;;;;;;;;;;20.17;67.62;99621.97;3154018;28;19928;-69
2023/09/04 07:12:40;;;;;;;;;;;;;;;20.18;67.56;99630.72;3140015;28;19928;-65
2023/09/04 07:14:12;;;;;;;;;;;;;;;20.18;67.49;99630.72;3154380;28;19932;-66
2023/09/04 07:15:43;;;;;;;;;;;;;;;20.15;67.72;99631.00;3163790;28;20009;-67
2023/09/04 07:17:15;;;;;;;;;;;;;;;20.16;67.82;99635.31;3162174;28;19958;-69
2023/09/04 07:18:45;;;;;;;;;;;;;;;20.16;67.92;99638.78;3162687;28;20018;-72
2023/09/04 07:20:17;;;;;;;;;;;;;;;20.17;67.79;99636.97;3165823;28;19927;-68
2023/09/04 07:21:47;;;;;;;;;;;;;;;20.19;67.81;99638.50;3165474;28;20328;-69
2023/09/04 07:23:20;;;;;;;;;;;;;;;20.22;67.62;99645.34;3164779;28;19927;-68
2023/09/04 07:24:51;;;;;;;;;;;;;;;20.23;67.78;99642.56;3160632;28;20146;-73
2023/09/04 07:26:22;;;;;;;;;;;;;;;20.23;67.79;99639.94;3155179;28;20413;-68
2023/09/04 07:27:56;;;;;;;;;;;;;;;20.23;67.81;99653.16;3159861;28;19997;-69
2023/09/04 07:29:28;;;;;;;;;;;;;;;20.20;68.07;99650.78;3157145;28;19985;-68
2023/09/04 07:31:08;;;;;;;;;;;;;;;20.20;68.13;99649.91;3165439;28;19934;-68
2023/09/04 07:32:40;;;;;;;;;;;;;;;20.21;68.21;99655.06;3163848;28;19970;-69
2023/09/04 07:34:11;;;;;;;;;;;;;;;20.20;68.15;99650.78;3156583;28;20393;-75
2023/09/04 07:35:42;;;;;;;;;;;;;;;20.20;68.10;99650.78;3153179;28;19932;-68
2023/09/04 07:37:14;;;;;;;;;;;;;;;20.20;68.20;99652.56;3160424;28;20524;-72
2023/09/04 07:38:45;;;;;;;;;;;;;;;20.17;68.38;99655.47;3159521;28;19928;-71
2023/09/04 07:40:17;;;;;;;;;;;;;;;20.17;68.31;99655.47;3157427;28;19928;-68
2023/09/04 07:41:47;;;;;;;;;;;;;;;20.16;68.38;99657.28;3157421;28;20221;-71
2023/09/04 07:43:21;;;;;;;;;;;;;;;20.18;68.28;99659.81;3161908;28;20094;-73
2023/09/04 07:44:51;;;;;;;;;;;;;;;20.21;68.08;99664.81;3156096;28;19988;-69
2023/09/04 07:46:23;;;;;;;;;;;;;;;20.22;67.96;99662.03;3165107;28;19933;-69
2023/09/04 07:47:53;;;;;;;;;;;;;;;20.23;67.94;99665.50;3158824;28;19989;-69
2023/09/04 07:49:26;;;;;;;;;;;;;;;20.22;68.13;99666.50;3166296;28;20422;-67
2023/09/04 07:50:57;;;;;;;;;;;;;;;20.19;68.14;99664.13;3154626;28;20006;-65
2023/09/04 07:52:28;;;;;;;;;;;;;;;20.16;68.39;99669.66;3165348;28;20029;-68
2023/09/04 07:53:59;;;;;;;;;;;;;;;20.13;68.37;99665.47;3161668;28;19935;-68
2023/09/04 07:55:31;;;;;;;;;;;;;;;20.08;68.87;99662.41;3161830;28;19934;-69
2023/09/04 07:57:04;;;;;;;;;;;;;;;20.02;68.90;99662.94;3162725;28;19928;-68
2023/09/04 07:58:39;;;;;;;;;;;;;;;19.96;69.21;99664.28;3165006;28;19934;-68